sensor_id;sensor_type;location;lat;lon;timestamp;temperature;humidity
51613;DHT22;37694;51.748;14.326;2023-05-01T00:02:22;24.10;40.00
51613;DHT22;37694;51.748;14.326;2023-05-01T00:04:47;24.10;40.00
51613;DHT22;37694;51.748;14.326;2023-05-01T00:07:13;24.10;40.00
51613;DHT22;37694;51.748;14.326;2023-05-01T00:09:39;24.10;40.00
51613;DHT22;37694;51.748;14.326;2023-05-01T00:12:05;24.10;40.10
51613;DHT22;37694;51.748;14.326;2023-05-01T00:14:30;24.10;40.10
51613;DHT22;37694;51.748;14.326;2023-05-01T00:16:56;24.10;40.10
51613;DHT22;37694;51.748;14.326;2023-05-01T00:19:22;24.10;40.10
51613;DHT22;37694;51.748;14.326;2023-05-01T00:21:47;24.10;40.10
51613;DHT22;37694;51.748;14.326;2023-05-01T00:24:16;24.10;40.00
51613;DHT22;37694;51.748;14.326;2023-05-01T00:26:42;24.10;40.10
51613;DHT22;37694;51.748;14.326;2023-05-01T00:29:07;24.10;40.10
51613;DHT22;37694;51.748;14.326;2023-05-01T00:31:34;24.00;40.00
51613;DHT22;37694;51.748;14.326;2023-05-01T00:34:00;24.00;40.00
51613;DHT22;37694;51.748;14.326;2023-05-01T00:36:26;24.10;40.10
51613;DHT22;37694;51.748;14.326;2023-05-01T00:38:51;24.00;40.00
51613;DHT22;37694;51.748;14.326;2023-05-01T00:41:17;24.00;40.00
51613;DHT22;37694;51.748;14.326;2023-05-01T00:43:43;24.00;40.10
51613;DHT22;37694;51.748;14.326;2023-05-01T00:46:09;24.00;40.10
51613;DHT22;37694;51.748;14.326;2023-05-01T00:48:35;24.00;40.20
51613;DHT22;37694;51.748;14.326;2023-05-01T00:51:04;24.00;40.10
51613;DHT22;37694;51.748;14.326;2023-05-01T00:53:32;24.00;40.10
51613;DHT22;37694;51.748;14.326;2023-05-01T00:55:58;23.90;40.20
51613;DHT22;37694;51.748;14.326;2023-05-01T00:58:25;23.90;40.10
51613;DHT22;37694;51.748;14.326;2023-05-01T01:00:51;23.90;40.10
51613;DHT22;37694;51.748;14.326;2023-05-01T01:03:17;23.90;40.20
51613;DHT22;37694;51.748;14.326;2023-05-01T01:05:59;23.90;40.20
51613;DHT22;37694;51.748;14.326;2023-05-01T01:08:33;23.90;40.10
51613;DHT22;37694;51.748;14.326;2023-05-01T01:14:07;23.90;40.30
51613;DHT22;37694;51.748;14.326;2023-05-01T01:16:51;23.90;41.00
51613;DHT22;37694;51.748;14.326;2023-05-01T01:22:07;23.90;40.30
51613;DHT22;37694;51.748;14.326;2023-05-01T01:34:03;23.70;40.40
51613;DHT22;37694;51.748;14.326;2023-05-01T01:36:59;23.70;40.60
51613;DHT22;37694;51.748;14.326;2023-05-01T01:41:57;23.70;40.80
51613;DHT22;37694;51.748;14.326;2023-05-01T01:44:32;23.70;40.80
51613;DHT22;37694;51.748;14.326;2023-05-01T01:47:01;23.70;40.60
51613;DHT22;37694;51.748;14.326;2023-05-01T01:49:28;23.70;40.50
51613;DHT22;37694;51.748;14.326;2023-05-01T01:51:56;23.70;40.50
51613;DHT22;37694;51.748;14.326;2023-05-01T01:54:30;23.70;40.50
51613;DHT22;37694;51.748;14.326;2023-05-01T01:56:58;23.70;40.50
51613;DHT22;37694;51.748;14.326;2023-05-01T01:59:29;23.70;40.60
51613;DHT22;37694;51.748;14.326;2023-05-01T02:01:55;23.70;40.50
51613;DHT22;37694;51.748;14.326;2023-05-01T02:04:24;23.70;40.60
51613;DHT22;37694;51.748;14.326;2023-05-01T02:06:54;23.70;40.60
51613;DHT22;37694;51.748;14.326;2023-05-01T02:09:21;23.70;40.60
51613;DHT22;37694;51.748;14.326;2023-05-01T02:11:49;23.70;40.70
51613;DHT22;37694;51.748;14.326;2023-05-01T02:14:17;23.70;40.70
51613;DHT22;37694;51.748;14.326;2023-05-01T02:16:43;23.70;40.70
51613;DHT22;37694;51.748;14.326;2023-05-01T02:19:10;23.70;40.70
51613;DHT22;37694;51.748;14.326;2023-05-01T02:21:36;23.70;40.70
51613;DHT22;37694;51.748;14.326;2023-05-01T02:24:04;23.70;40.70
51613;DHT22;37694;51.748;14.326;2023-05-01T02:26:37;23.70;40.70
51613;DHT22;37694;51.748;14.326;2023-05-01T02:29:04;23.70;40.70
51613;DHT22;37694;51.748;14.326;2023-05-01T02:31:31;23.60;40.80
51613;DHT22;37694;51.748;14.326;2023-05-01T02:33:57;23.60;40.90
51613;DHT22;37694;51.748;14.326;2023-05-01T02:36:23;23.60;40.80
51613;DHT22;37694;51.748;14.326;2023-05-01T02:38:49;23.60;40.70
51613;DHT22;37694;51.748;14.326;2023-05-01T02:41:15;23.60;40.70
51613;DHT22;37694;51.748;14.326;2023-05-01T02:43:44;23.60;40.70
51613;DHT22;37694;51.748;14.326;2023-05-01T02:46:12;23.60;40.70
51613;DHT22;37694;51.748;14.326;2023-05-01T02:48:40;23.60;40.70
51613;DHT22;37694;51.748;14.326;2023-05-01T02:51:07;23.60;40.70
51613;DHT22;37694;51.748;14.326;2023-05-01T02:53:34;23.60;40.80
51613;DHT22;37694;51.748;14.326;2023-05-01T02:56:03;23.60;40.70
51613;DHT22;37694;51.748;14.326;2023-05-01T02:58:30;23.60;40.70
51613;DHT22;37694;51.748;14.326;2023-05-01T03:00:57;23.60;40.70
51613;DHT22;37694;51.748;14.326;2023-05-01T03:03:22;23.60;40.80
51613;DHT22;37694;51.748;14.326;2023-05-01T03:05:48;23.60;40.80
51613;DHT22;37694;51.748;14.326;2023-05-01T03:08:14;23.60;40.90
51613;DHT22;37694;51.748;14.326;2023-05-01T03:10:40;23.50;40.90
51613;DHT22;37694;51.748;14.326;2023-05-01T03:13:09;23.50;40.90
51613;DHT22;37694;51.748;14.326;2023-05-01T03:15:36;23.50;41.00
51613;DHT22;37694;51.748;14.326;2023-05-01T03:18:02;23.50;41.10
51613;DHT22;37694;51.748;14.326;2023-05-01T03:20:28;23.50;41.10
51613;DHT22;37694;51.748;14.326;2023-05-01T03:22:54;23.40;41.10
51613;DHT22;37694;51.748;14.326;2023-05-01T03:25:21;23.40;41.20
51613;DHT22;37694;51.748;14.326;2023-05-01T03:27:46;23.40;42.10
51613;DHT22;37694;51.748;14.326;2023-05-01T03:30:13;23.40;41.20
51613;DHT22;37694;51.748;14.326;2023-05-01T03:32:39;23.40;41.30
51613;DHT22;37694;51.748;14.326;2023-05-01T03:35:05;23.40;41.30
51613;DHT22;37694;51.748;14.326;2023-05-01T03:37:30;23.40;41.50
51613;DHT22;37694;51.748;14.326;2023-05-01T03:39:58;23.40;41.50
51613;DHT22;37694;51.748;14.326;2023-05-01T03:42:24;23.30;41.40
51613;DHT22;37694;51.748;14.326;2023-05-01T03:44:50;23.30;41.50
51613;DHT22;37694;51.748;14.326;2023-05-01T03:47:15;23.40;41.50
51613;DHT22;37694;51.748;14.326;2023-05-01T03:49:41;23.30;41.50
51613;DHT22;37694;51.748;14.326;2023-05-01T03:52:08;23.30;41.50
51613;DHT22;37694;51.748;14.326;2023-05-01T03:54:35;23.30;41.40
51613;DHT22;37694;51.748;14.326;2023-05-01T03:57:01;23.30;41.50
51613;DHT22;37694;51.748;14.326;2023-05-01T03:59:27;23.30;41.60
51613;DHT22;37694;51.748;14.326;2023-05-01T04:01:52;23.30;41.60
51613;DHT22;37694;51.748;14.326;2023-05-01T04:04:18;23.30;41.60
51613;DHT22;37694;51.748;14.326;2023-05-01T04:06:44;23.30;41.70
51613;DHT22;37694;51.748;14.326;2023-05-01T04:09:09;23.20;41.60
51613;DHT22;37694;51.748;14.326;2023-05-01T04:11:35;23.20;41.50
51613;DHT22;37694;51.748;14.326;2023-05-01T04:14:01;23.30;41.50
51613;DHT22;37694;51.748;14.326;2023-05-01T04:16:26;23.30;41.40
51613;DHT22;37694;51.748;14.326;2023-05-01T04:18:52;23.30;41.40
51613;DHT22;37694;51.748;14.326;2023-05-01T04:21:18;23.30;41.30
51613;DHT22;37694;51.748;14.326;2023-05-01T04:23:43;23.30;41.30
51613;DHT22;37694;51.748;14.326;2023-05-01T04:26:09;23.30;41.20
51613;DHT22;37694;51.748;14.326;2023-05-01T04:28:35;23.30;41.20
51613;DHT22;37694;51.748;14.326;2023-05-01T04:31:01;23.30;41.20
51613;DHT22;37694;51.748;14.326;2023-05-01T04:33:26;23.30;41.20
51613;DHT22;37694;51.748;14.326;2023-05-01T04:35:52;23.30;41.20
51613;DHT22;37694;51.748;14.326;2023-05-01T04:38:18;23.30;41.20
51613;DHT22;37694;51.748;14.326;2023-05-01T04:40:44;23.30;41.20
51613;DHT22;37694;51.748;14.326;2023-05-01T04:43:10;23.30;41.20
51613;DHT22;37694;51.748;14.326;2023-05-01T04:45:37;23.30;41.20
51613;DHT22;37694;51.748;14.326;2023-05-01T04:48:03;23.30;41.20
51613;DHT22;37694;51.748;14.326;2023-05-01T04:50:29;23.30;41.30
51613;DHT22;37694;51.748;14.326;2023-05-01T04:52:56;23.30;41.30
51613;DHT22;37694;51.748;14.326;2023-05-01T04:55:21;23.30;41.30
51613;DHT22;37694;51.748;14.326;2023-05-01T04:57:47;23.30;41.30
51613;DHT22;37694;51.748;14.326;2023-05-01T05:00:13;23.30;41.30
51613;DHT22;37694;51.748;14.326;2023-05-01T05:02:39;23.30;41.30
51613;DHT22;37694;51.748;14.326;2023-05-01T05:05:05;23.30;41.20
51613;DHT22;37694;51.748;14.326;2023-05-01T05:07:31;23.40;41.30
51613;DHT22;37694;51.748;14.326;2023-05-01T05:09:56;23.40;41.30
51613;DHT22;37694;51.748;14.326;2023-05-01T05:12:22;23.40;41.30
51613;DHT22;37694;51.748;14.326;2023-05-01T05:14:48;23.40;41.20
51613;DHT22;37694;51.748;14.326;2023-05-01T05:17:13;23.40;41.20
51613;DHT22;37694;51.748;14.326;2023-05-01T05:19:39;23.40;41.20
51613;DHT22;37694;51.748;14.326;2023-05-01T05:22:05;23.40;41.20
51613;DHT22;37694;51.748;14.326;2023-05-01T05:24:30;23.40;41.20
51613;DHT22;37694;51.748;14.326;2023-05-01T05:26:56;23.40;41.20
51613;DHT22;37694;51.748;14.326;2023-05-01T05:29:22;23.40;41.20
51613;DHT22;37694;51.748;14.326;2023-05-01T05:31:48;23.50;41.30
51613;DHT22;37694;51.748;14.326;2023-05-01T05:34:13;23.40;41.20
51613;DHT22;37694;51.748;14.326;2023-05-01T05:36:39;23.40;41.20
51613;DHT22;37694;51.748;14.326;2023-05-01T05:39:05;23.40;41.20
51613;DHT22;37694;51.748;14.326;2023-05-01T05:41:30;23.50;41.20
51613;DHT22;37694;51.748;14.326;2023-05-01T05:43:56;23.50;41.20
51613;DHT22;37694;51.748;14.326;2023-05-01T05:46:22;23.50;41.20
51613;DHT22;37694;51.748;14.326;2023-05-01T05:48:47;23.50;41.30
51613;DHT22;37694;51.748;14.326;2023-05-01T05:51:13;23.50;41.30
51613;DHT22;37694;51.748;14.326;2023-05-01T05:53:39;23.50;41.30
51613;DHT22;37694;51.748;14.326;2023-05-01T05:56:05;23.50;41.30
51613;DHT22;37694;51.748;14.326;2023-05-01T05:58:30;23.50;41.30
51613;DHT22;37694;51.748;14.326;2023-05-01T06:00:56;23.50;41.40
51613;DHT22;37694;51.748;14.326;2023-05-01T06:03:22;23.50;41.30
51613;DHT22;37694;51.748;14.326;2023-05-01T06:05:47;23.50;41.40
51613;DHT22;37694;51.748;14.326;2023-05-01T06:08:13;23.50;41.40
51613;DHT22;37694;51.748;14.326;2023-05-01T06:10:41;23.60;41.40
51613;DHT22;37694;51.748;14.326;2023-05-01T06:13:07;23.60;41.50
51613;DHT22;37694;51.748;14.326;2023-05-01T06:15:38;23.60;41.60
51613;DHT22;37694;51.748;14.326;2023-05-01T06:18:04;23.60;41.80
51613;DHT22;37694;51.748;14.326;2023-05-01T06:20:30;23.60;41.90
51613;DHT22;37694;51.748;14.326;2023-05-01T06:22:56;23.60;42.10
51613;DHT22;37694;51.748;14.326;2023-05-01T06:25:22;23.60;42.20
51613;DHT22;37694;51.748;14.326;2023-05-01T06:27:49;23.70;42.20
51613;DHT22;37694;51.748;14.326;2023-05-01T06:30:15;23.70;42.40
51613;DHT22;37694;51.748;14.326;2023-05-01T06:32:41;23.70;42.70
51613;DHT22;37694;51.748;14.326;2023-05-01T06:35:08;23.70;42.90
51613;DHT22;37694;51.748;14.326;2023-05-01T06:37:34;23.80;43.10
51613;DHT22;37694;51.748;14.326;2023-05-01T06:40:00;23.80;43.20
51613;DHT22;37694;51.748;14.326;2023-05-01T06:42:26;23.90;43.30
51613;DHT22;37694;51.748;14.326;2023-05-01T06:44:52;23.90;43.40
51613;DHT22;37694;51.748;14.326;2023-05-01T06:47:18;23.90;43.30
51613;DHT22;37694;51.748;14.326;2023-05-01T06:49:43;24.00;43.70
51613;DHT22;37694;51.748;14.326;2023-05-01T06:52:09;24.00;43.60
51613;DHT22;37694;51.748;14.326;2023-05-01T06:54:34;24.00;43.50
51613;DHT22;37694;51.748;14.326;2023-05-01T06:57:00;24.00;43.40
51613;DHT22;37694;51.748;14.326;2023-05-01T06:59:26;24.10;43.70
51613;DHT22;37694;51.748;14.326;2023-05-01T07:01:52;24.10;43.50
51613;DHT22;37694;51.748;14.326;2023-05-01T07:04:17;24.10;43.40
51613;DHT22;37694;51.748;14.326;2023-05-01T07:06:43;24.10;43.60
51613;DHT22;37694;51.748;14.326;2023-05-01T07:09:09;24.10;43.70
51613;DHT22;37694;51.748;14.326;2023-05-01T07:11:36;24.20;43.70
51613;DHT22;37694;51.748;14.326;2023-05-01T07:14:03;24.20;41.40
51613;DHT22;37694;51.748;14.326;2023-05-01T07:16:28;24.10;38.60
51613;DHT22;37694;51.748;14.326;2023-05-01T07:18:54;23.90;37.40
51613;DHT22;37694;51.748;14.326;2023-05-01T07:21:20;23.90;38.20
51613;DHT22;37694;51.748;14.326;2023-05-01T07:23:45;23.90;38.90
51613;DHT22;37694;51.748;14.326;2023-05-01T07:26:11;24.00;40.00
51613;DHT22;37694;51.748;14.326;2023-05-01T07:28:37;24.10;39.20
51613;DHT22;37694;51.748;14.326;2023-05-01T07:31:03;24.10;39.20
51613;DHT22;37694;51.748;14.326;2023-05-01T07:33:29;24.30;39.20
51613;DHT22;37694;51.748;14.326;2023-05-01T07:35:55;24.30;39.00
51613;DHT22;37694;51.748;14.326;2023-05-01T07:38:21;24.30;38.60
51613;DHT22;37694;51.748;14.326;2023-05-01T07:40:47;24.40;38.70
51613;DHT22;37694;51.748;14.326;2023-05-01T07:43:12;24.40;38.70
51613;DHT22;37694;51.748;14.326;2023-05-01T07:45:38;24.40;38.80
51613;DHT22;37694;51.748;14.326;2023-05-01T07:48:05;24.40;39.00
51613;DHT22;37694;51.748;14.326;2023-05-01T07:50:30;24.40;38.90
51613;DHT22;37694;51.748;14.326;2023-05-01T07:52:56;24.50;39.00
51613;DHT22;37694;51.748;14.326;2023-05-01T07:55:23;24.50;39.10
51613;DHT22;37694;51.748;14.326;2023-05-01T07:57:49;24.50;39.10
51613;DHT22;37694;51.748;14.326;2023-05-01T08:00:15;24.50;39.20
51613;DHT22;37694;51.748;14.326;2023-05-01T08:02:41;24.60;39.70
51613;DHT22;37694;51.748;14.326;2023-05-01T08:05:08;24.60;40.30
51613;DHT22;37694;51.748;14.326;2023-05-01T08:07:34;24.60;43.60
51613;DHT22;37694;51.748;14.326;2023-05-01T08:09:59;24.70;43.50
51613;DHT22;37694;51.748;14.326;2023-05-01T08:12:27;24.80;42.80
51613;DHT22;37694;51.748;14.326;2023-05-01T08:14:52;24.80;42.30
51613;DHT22;37694;51.748;14.326;2023-05-01T08:17:18;24.90;42.30
51613;DHT22;37694;51.748;14.326;2023-05-01T08:19:44;24.90;41.60
51613;DHT22;37694;51.748;14.326;2023-05-01T08:22:10;24.90;41.50
51613;DHT22;37694;51.748;14.326;2023-05-01T08:24:37;24.90;41.60
51613;DHT22;37694;51.748;14.326;2023-05-01T08:27:03;24.90;41.30
51613;DHT22;37694;51.748;14.326;2023-05-01T08:29:28;24.90;41.90
51613;DHT22;37694;51.748;14.326;2023-05-01T08:31:56;25.00;41.60
51613;DHT22;37694;51.748;14.326;2023-05-01T08:34:22;25.00;41.90
51613;DHT22;37694;51.748;14.326;2023-05-01T08:36:48;24.90;42.20
51613;DHT22;37694;51.748;14.326;2023-05-01T08:39:14;24.90;41.90
51613;DHT22;37694;51.748;14.326;2023-05-01T08:41:44;25.00;41.80
51613;DHT22;37694;51.748;14.326;2023-05-01T08:44:14;25.00;42.20
51613;DHT22;37694;51.748;14.326;2023-05-01T08:47:09;25.00;42.40
51613;DHT22;37694;51.748;14.326;2023-05-01T08:49:39;25.00;42.60
51613;DHT22;37694;51.748;14.326;2023-05-01T08:52:05;25.00;43.00
51613;DHT22;37694;51.748;14.326;2023-05-01T08:54:32;25.00;43.00
51613;DHT22;37694;51.748;14.326;2023-05-01T08:57:02;25.00;42.70
51613;DHT22;37694;51.748;14.326;2023-05-01T08:59:31;25.00;42.80
51613;DHT22;37694;51.748;14.326;2023-05-01T09:02:00;25.10;42.90
51613;DHT22;37694;51.748;14.326;2023-05-01T09:04:30;25.10;43.10
51613;DHT22;37694;51.748;14.326;2023-05-01T09:06:58;25.10;43.10
51613;DHT22;37694;51.748;14.326;2023-05-01T09:09:26;25.10;43.10
51613;DHT22;37694;51.748;14.326;2023-05-01T09:11:58;25.10;43.00
51613;DHT22;37694;51.748;14.326;2023-05-01T09:14:26;25.20;43.10
51613;DHT22;37694;51.748;14.326;2023-05-01T09:16:52;25.20;43.20
51613;DHT22;37694;51.748;14.326;2023-05-01T09:19:18;25.20;42.90
51613;DHT22;37694;51.748;14.326;2023-05-01T09:21:44;25.20;42.90
51613;DHT22;37694;51.748;14.326;2023-05-01T09:24:09;25.20;42.90
51613;DHT22;37694;51.748;14.326;2023-05-01T09:26:39;25.20;42.80
51613;DHT22;37694;51.748;14.326;2023-05-01T09:29:06;25.20;42.80
51613;DHT22;37694;51.748;14.326;2023-05-01T09:31:34;25.30;42.90
51613;DHT22;37694;51.748;14.326;2023-05-01T09:34:02;25.30;42.80
51613;DHT22;37694;51.748;14.326;2023-05-01T09:36:30;25.30;42.90
51613;DHT22;37694;51.748;14.326;2023-05-01T09:38:57;25.30;42.70
51613;DHT22;37694;51.748;14.326;2023-05-01T09:41:22;25.30;42.70
51613;DHT22;37694;51.748;14.326;2023-05-01T09:43:55;25.30;42.60
51613;DHT22;37694;51.748;14.326;2023-05-01T09:46:22;25.40;42.60
51613;DHT22;37694;51.748;14.326;2023-05-01T09:51:30;25.40;42.60
51613;DHT22;37694;51.748;14.326;2023-05-01T09:54:03;25.50;42.60
51613;DHT22;37694;51.748;14.326;2023-05-01T09:56:31;25.50;42.50
51613;DHT22;37694;51.748;14.326;2023-05-01T10:01:41;25.50;42.30
51613;DHT22;37694;51.748;14.326;2023-05-01T10:04:07;25.50;42.30
51613;DHT22;37694;51.748;14.326;2023-05-01T10:06:34;25.50;43.10
51613;DHT22;37694;51.748;14.326;2023-05-01T10:09:01;25.60;42.20
51613;DHT22;37694;51.748;14.326;2023-05-01T10:11:27;25.60;42.00
51613;DHT22;37694;51.748;14.326;2023-05-01T10:14:09;25.60;42.00
51613;DHT22;37694;51.748;14.326;2023-05-01T10:16:37;25.60;42.00
51613;DHT22;37694;51.748;14.326;2023-05-01T10:19:04;25.60;41.90
51613;DHT22;37694;51.748;14.326;2023-05-01T10:21:31;25.60;41.80
51613;DHT22;37694;51.748;14.326;2023-05-01T10:23:57;25.60;41.70
51613;DHT22;37694;51.748;14.326;2023-05-01T10:26:26;25.60;41.70
51613;DHT22;37694;51.748;14.326;2023-05-01T10:28:51;25.70;41.70
51613;DHT22;37694;51.748;14.326;2023-05-01T10:31:18;25.70;41.60
51613;DHT22;37694;51.748;14.326;2023-05-01T10:33:44;25.70;41.60
51613;DHT22;37694;51.748;14.326;2023-05-01T10:36:18;25.70;41.60
51613;DHT22;37694;51.748;14.326;2023-05-01T10:38:45;25.70;41.50
51613;DHT22;37694;51.748;14.326;2023-05-01T10:41:13;25.70;41.50
51613;DHT22;37694;51.748;14.326;2023-05-01T10:43:40;25.70;41.50
51613;DHT22;37694;51.748;14.326;2023-05-01T10:53:39;25.80;41.50
51613;DHT22;37694;51.748;14.326;2023-05-01T10:56:05;25.80;41.50
51613;DHT22;37694;51.748;14.326;2023-05-01T10:59:01;25.80;41.30
51613;DHT22;37694;51.748;14.326;2023-05-01T11:03:57;25.80;41.30
51613;DHT22;37694;51.748;14.326;2023-05-01T11:06:24;25.80;42.10
51613;DHT22;37694;51.748;14.326;2023-05-01T11:08:50;25.90;41.20
51613;DHT22;37694;51.748;14.326;2023-05-01T11:14:03;25.90;41.10
51613;DHT22;37694;51.748;14.326;2023-05-01T11:16:41;25.90;41.00
51613;DHT22;37694;51.748;14.326;2023-05-01T11:21:45;26.00;41.10
51613;DHT22;37694;51.748;14.326;2023-05-01T11:24:12;26.00;41.10
51613;DHT22;37694;51.748;14.326;2023-05-01T11:26:38;26.00;41.00
51613;DHT22;37694;51.748;14.326;2023-05-01T11:29:05;26.00;40.90
51613;DHT22;37694;51.748;14.326;2023-05-01T11:31:31;26.00;40.90
51613;DHT22;37694;51.748;14.326;2023-05-01T11:34:00;26.00;40.90
51613;DHT22;37694;51.748;14.326;2023-05-01T11:36:27;26.10;40.80
51613;DHT22;37694;51.748;14.326;2023-05-01T11:38:54;26.10;40.90
51613;DHT22;37694;51.748;14.326;2023-05-01T11:41:24;26.10;40.80
51613;DHT22;37694;51.748;14.326;2023-05-01T11:43:51;26.10;40.80
51613;DHT22;37694;51.748;14.326;2023-05-01T11:46:28;26.10;40.80
51613;DHT22;37694;51.748;14.326;2023-05-01T11:48:55;26.10;40.80
51613;DHT22;37694;51.748;14.326;2023-05-01T11:51:21;26.10;40.80
51613;DHT22;37694;51.748;14.326;2023-05-01T11:54:04;26.20;40.70
51613;DHT22;37694;51.748;14.326;2023-05-01T11:56:31;26.10;40.70
51613;DHT22;37694;51.748;14.326;2023-05-01T11:58:59;26.20;40.70
51613;DHT22;37694;51.748;14.326;2023-05-01T12:01:38;26.10;40.70
51613;DHT22;37694;51.748;14.326;2023-05-01T12:04:06;26.20;40.90
51613;DHT22;37694;51.748;14.326;2023-05-01T12:06:45;26.10;41.20
51613;DHT22;37694;51.748;14.326;2023-05-01T12:09:19;26.20;41.10
51613;DHT22;37694;51.748;14.326;2023-05-01T12:11:47;26.30;41.20
51613;DHT22;37694;51.748;14.326;2023-05-01T12:14:14;26.30;41.30
51613;DHT22;37694;51.748;14.326;2023-05-01T12:16:40;26.30;41.20
51613;DHT22;37694;51.748;14.326;2023-05-01T12:19:07;26.30;41.20
51613;DHT22;37694;51.748;14.326;2023-05-01T12:21:33;26.30;41.20
51613;DHT22;37694;51.748;14.326;2023-05-01T12:24:26;26.30;41.10
51613;DHT22;37694;51.748;14.326;2023-05-01T12:26:59;26.40;41.10
51613;DHT22;37694;51.748;14.326;2023-05-01T12:29:25;26.40;41.20
51613;DHT22;37694;51.748;14.326;2023-05-01T12:31:50;26.40;41.20
51613;DHT22;37694;51.748;14.326;2023-05-01T12:34:17;26.40;41.10
51613;DHT22;37694;51.748;14.326;2023-05-01T12:36:52;26.40;41.00
51613;DHT22;37694;51.748;14.326;2023-05-01T12:39:19;26.40;41.10
51613;DHT22;37694;51.748;14.326;2023-05-01T12:41:48;26.50;41.10
51613;DHT22;37694;51.748;14.326;2023-05-01T12:44:25;26.50;41.70
51613;DHT22;37694;51.748;14.326;2023-05-01T12:46:55;26.50;41.00
51613;DHT22;37694;51.748;14.326;2023-05-01T12:49:22;26.50;40.90
51613;DHT22;37694;51.748;14.326;2023-05-01T12:51:49;26.50;40.90
51613;DHT22;37694;51.748;14.326;2023-05-01T12:54:31;26.50;41.00
51613;DHT22;37694;51.748;14.326;2023-05-01T12:57:15;26.60;40.90
51613;DHT22;37694;51.748;14.326;2023-05-01T12:59:44;26.60;40.80
51613;DHT22;37694;51.748;14.326;2023-05-01T13:02:11;26.60;40.90
51613;DHT22;37694;51.748;14.326;2023-05-01T13:04:38;26.50;40.60
51613;DHT22;37694;51.748;14.326;2023-05-01T13:07:17;26.60;40.60
51613;DHT22;37694;51.748;14.326;2023-05-01T13:09:56;26.60;40.50
51613;DHT22;37694;51.748;14.326;2023-05-01T13:12:26;26.50;40.40
51613;DHT22;37694;51.748;14.326;2023-05-01T13:14:53;26.50;40.50
51613;DHT22;37694;51.748;14.326;2023-05-01T13:17:29;26.50;40.40
51613;DHT22;37694;51.748;14.326;2023-05-01T13:19:57;26.60;40.40
51613;DHT22;37694;51.748;14.326;2023-05-01T13:22:34;26.50;40.30
51613;DHT22;37694;51.748;14.326;2023-05-01T13:25:13;26.60;40.40
51613;DHT22;37694;51.748;14.326;2023-05-01T13:27:39;26.50;40.40
51613;DHT22;37694;51.748;14.326;2023-05-01T13:30:06;26.50;40.30
51613;DHT22;37694;51.748;14.326;2023-05-01T13:32:32;26.50;40.30
51613;DHT22;37694;51.748;14.326;2023-05-01T13:35:00;26.50;40.30
51613;DHT22;37694;51.748;14.326;2023-05-01T13:37:26;26.60;40.40
51613;DHT22;37694;51.748;14.326;2023-05-01T13:39:56;26.60;40.40
51613;DHT22;37694;51.748;14.326;2023-05-01T13:42:24;26.50;40.20
51613;DHT22;37694;51.748;14.326;2023-05-01T13:44:52;26.50;40.20
51613;DHT22;37694;51.748;14.326;2023-05-01T13:47:18;26.60;40.30
51613;DHT22;37694;51.748;14.326;2023-05-01T13:49:44;26.50;40.20
51613;DHT22;37694;51.748;14.326;2023-05-01T13:52:15;26.60;40.20
51613;DHT22;37694;51.748;14.326;2023-05-01T13:54:45;26.60;40.30
51613;DHT22;37694;51.748;14.326;2023-05-01T13:57:11;26.60;40.30
51613;DHT22;37694;51.748;14.326;2023-05-01T13:59:42;26.60;40.20
51613;DHT22;37694;51.748;14.326;2023-05-01T14:02:17;26.60;40.20
51613;DHT22;37694;51.748;14.326;2023-05-01T14:04:47;26.50;40.20
51613;DHT22;37694;51.748;14.326;2023-05-01T14:07:23;26.50;40.20
51613;DHT22;37694;51.748;14.326;2023-05-01T14:09:53;26.60;40.20
51613;DHT22;37694;51.748;14.326;2023-05-01T14:12:30;26.50;40.10
51613;DHT22;37694;51.748;14.326;2023-05-01T14:14:56;26.60;40.10
51613;DHT22;37694;51.748;14.326;2023-05-01T14:17:29;26.50;40.20
51613;DHT22;37694;51.748;14.326;2023-05-01T14:19:54;26.50;40.30
51613;DHT22;37694;51.748;14.326;2023-05-01T14:22:20;26.50;40.30
51613;DHT22;37694;51.748;14.326;2023-05-01T14:24:46;26.50;39.00
51613;DHT22;37694;51.748;14.326;2023-05-01T14:27:13;26.50;37.70
51613;DHT22;37694;51.748;14.326;2023-05-01T14:29:42;26.50;35.30
51613;DHT22;37694;51.748;14.326;2023-05-01T14:32:09;26.50;33.80
51613;DHT22;37694;51.748;14.326;2023-05-01T14:34:40;26.50;36.00
51613;DHT22;37694;51.748;14.326;2023-05-01T14:37:06;26.50;34.60
51613;DHT22;37694;51.748;14.326;2023-05-01T14:39:32;26.50;35.50
51613;DHT22;37694;51.748;14.326;2023-05-01T14:41:59;26.50;35.20
51613;DHT22;37694;51.748;14.326;2023-05-01T14:44:26;26.50;35.60
51613;DHT22;37694;51.748;14.326;2023-05-01T14:46:55;26.50;34.60
51613;DHT22;37694;51.748;14.326;2023-05-01T14:49:23;26.50;33.30
51613;DHT22;37694;51.748;14.326;2023-05-01T14:51:49;26.50;33.40
51613;DHT22;37694;51.748;14.326;2023-05-01T14:54:16;26.50;32.90
51613;DHT22;37694;51.748;14.326;2023-05-01T14:56:42;26.50;33.40
51613;DHT22;37694;51.748;14.326;2023-05-01T14:59:08;26.50;32.10
51613;DHT22;37694;51.748;14.326;2023-05-01T15:01:33;26.50;31.60
51613;DHT22;37694;51.748;14.326;2023-05-01T15:03:59;26.50;33.30
51613;DHT22;37694;51.748;14.326;2023-05-01T15:06:25;26.50;31.20
51613;DHT22;37694;51.748;14.326;2023-05-01T15:08:51;26.40;30.00
51613;DHT22;37694;51.748;14.326;2023-05-01T15:11:17;26.30;30.10
51613;DHT22;37694;51.748;14.326;2023-05-01T15:13:45;26.30;29.70
51613;DHT22;37694;51.748;14.326;2023-05-01T15:16:11;26.30;30.20
51613;DHT22;37694;51.748;14.326;2023-05-01T15:18:37;26.30;30.40
51613;DHT22;37694;51.748;14.326;2023-05-01T15:21:03;26.30;29.40
51613;DHT22;37694;51.748;14.326;2023-05-01T15:23:29;26.30;29.40
51613;DHT22;37694;51.748;14.326;2023-05-01T15:25:56;26.20;29.20
51613;DHT22;37694;51.748;14.326;2023-05-01T15:28:22;26.20;29.50
51613;DHT22;37694;51.748;14.326;2023-05-01T15:30:50;26.20;29.20
51613;DHT22;37694;51.748;14.326;2023-05-01T15:33:17;26.20;28.80
51613;DHT22;37694;51.748;14.326;2023-05-01T15:35:43;26.10;29.10
51613;DHT22;37694;51.748;14.326;2023-05-01T15:38:10;26.10;29.10
51613;DHT22;37694;51.748;14.326;2023-05-01T15:40:35;26.10;28.20
51613;DHT22;37694;51.748;14.326;2023-05-01T15:43:03;26.10;28.60
51613;DHT22;37694;51.748;14.326;2023-05-01T15:45:30;26.10;27.90
51613;DHT22;37694;51.748;14.326;2023-05-01T15:47:55;26.00;30.00
51613;DHT22;37694;51.748;14.326;2023-05-01T15:50:21;26.10;31.00
51613;DHT22;37694;51.748;14.326;2023-05-01T15:52:48;26.10;31.30
51613;DHT22;37694;51.748;14.326;2023-05-01T15:55:14;26.10;32.00
51613;DHT22;37694;51.748;14.326;2023-05-01T15:57:41;26.10;32.90